sensor_id;sensor_type;location;lat;lon;timestamp;pressure;altitude;pressure_sealevel;temperature;humidity
19086;BME280;9675;51.538;6.728;2024-01-30T00:00:25;102366.59;;;10.40;100.00
19086;BME280;9675;51.538;6.728;2024-01-30T00:02:53;102370.84;;;10.39;100.00
19086;BME280;9675;51.538;6.728;2024-01-30T00:05:20;102372.50;;;10.39;100.00
19086;BME280;9675;51.538;6.728;2024-01-30T00:07:47;102368.13;;;10.38;100.00
19086;BME280;9675;51.538;6.728;2024-01-30T00:10:14;102356.84;;;10.36;100.00
19086;BME280;9675;51.538;6.728;2024-01-30T00:12:41;102361.88;;;10.34;100.00
19086;BME280;9675;51.538;6.728;2024-01-30T00:15:09;102361.09;;;10.35;100.00
19086;BME280;9675;51.538;6.728;2024-01-30T00:17:36;102363.44;;;10.32;100.00
19086;BME280;9675;51.538;6.728;2024-01-30T00:20:06;102359.94;;;10.32;100.00
19086;BME280;9675;51.538;6.728;2024-01-30T00:22:34;102353.91;;;10.31;100.00
19086;BME280;9675;51.538;6.728;2024-01-30T00:25:01;102357.28;;;10.30;100.00
19086;BME280;9675;51.538;6.728;2024-01-30T00:27:28;102358.06;;;10.29;100.00
19086;BME280;9675;51.538;6.728;2024-01-30T00:29:56;102345.97;;;10.28;100.00
19086;BME280;9675;51.538;6.728;2024-01-30T00:32:23;102353.56;;;10.27;100.00
19086;BME280;9675;51.538;6.728;2024-01-30T00:34:50;102342.16;;;10.23;100.00
19086;BME280;9675;51.538;6.728;2024-01-30T00:37:18;102347.31;;;10.23;100.00
19086;BME280;9675;51.538;6.728;2024-01-30T00:39:45;102342.94;;;10.22;100.00
19086;BME280;9675;51.538;6.728;2024-01-30T00:42:12;102339.44;;;10.21;100.00
19086;BME280;9675;51.538;6.728;2024-01-30T00:44:39;102346.28;;;10.21;100.00
19086;BME280;9675;51.538;6.728;2024-01-30T00:47:06;102345.28;;;10.19;100.00
19086;BME280;9675;51.538;6.728;2024-01-30T00:49:33;102346.06;;;10.18;100.00
19086;BME280;9675;51.538;6.728;2024-01-30T00:52:00;102350.19;;;10.16;100.00
19086;BME280;9675;51.538;6.728;2024-01-30T00:54:29;102350.97;;;10.15;100.00
19086;BME280;9675;51.538;6.728;2024-01-30T00:56:56;102356.09;;;10.15;100.00
19086;BME280;9675;51.538;6.728;2024-01-30T00:59:23;102352.50;;;10.13;100.00
19086;BME280;9675;51.538;6.728;2024-01-30T01:01:50;102352.50;;;10.13;100.00
19086;BME280;9675;51.538;6.728;2024-01-30T01:04:17;102347.22;;;10.11;100.00
19086;BME280;9675;51.538;6.728;2024-01-30T01:06:44;102352.28;;;10.10;100.00
19086;BME280;9675;51.538;6.728;2024-01-30T01:09:11;102354.88;;;10.10;100.00
19086;BME280;9675;51.538;6.728;2024-01-30T01:11:40;102348.69;;;10.08;100.00
19086;BME280;9675;51.538;6.728;2024-01-30T01:14:07;102354.75;;;10.08;100.00
19086;BME280;9675;51.538;6.728;2024-01-30T01:16:34;102346.00;;;10.06;100.00
19086;BME280;9675;51.538;6.728;2024-01-30T01:19:01;102351.03;;;10.05;100.00
19086;BME280;9675;51.538;6.728;2024-01-30T01:21:29;102354.47;;;10.05;100.00
19086;BME280;9675;51.538;6.728;2024-01-30T01:23:56;102349.34;;;10.05;100.00
19086;BME280;9675;51.538;6.728;2024-01-30T01:26:23;102343.97;;;10.02;100.00
19086;BME280;9675;51.538;6.728;2024-01-30T01:28:51;102347.31;;;10.01;100.00
19086;BME280;9675;51.538;6.728;2024-01-30T01:31:18;102342.19;;;10.01;100.00
19086;BME280;9675;51.538;6.728;2024-01-30T01:33:48;102337.72;;;9.99;100.00
19086;BME280;9675;51.538;6.728;2024-01-30T01:36:15;102337.72;;;9.99;100.00
19086;BME280;9675;51.538;6.728;2024-01-30T01:38:42;102337.59;;;9.97;100.00
19086;BME280;9675;51.538;6.728;2024-01-30T01:41:09;102335.78;;;9.96;100.00
19086;BME280;9675;51.538;6.728;2024-01-30T01:43:36;102342.59;;;9.96;100.00
19086;BME280;9675;51.538;6.728;2024-01-30T01:46:06;102334.78;;;9.94;100.00
19086;BME280;9675;51.538;6.728;2024-01-30T01:48:33;102335.69;;;9.95;100.00
19086;BME280;9675;51.538;6.728;2024-01-30T01:51:02;102333.91;;;9.94;100.00
19086;BME280;9675;51.538;6.728;2024-01-30T01:53:29;102332.09;;;9.93;100.00
19086;BME280;9675;51.538;6.728;2024-01-30T01:55:57;102333.00;;;9.93;100.00
19086;BME280;9675;51.538;6.728;2024-01-30T01:58:27;102333.63;;;9.91;100.00
19086;BME280;9675;51.538;6.728;2024-01-30T02:00:58;102330.28;;;9.92;100.00
19086;BME280;9675;51.538;6.728;2024-01-30T02:03:27;102331.06;;;9.91;100.00
19086;BME280;9675;51.538;6.728;2024-01-30T02:05:56;102324.13;;;9.90;100.00
19086;BME280;9675;51.538;6.728;2024-01-30T02:08:23;102326.69;;;9.90;100.00
19086;BME280;9675;51.538;6.728;2024-01-30T02:10:51;102314.63;;;9.89;100.00
19086;BME280;9675;51.538;6.728;2024-01-30T02:13:18;102315.53;;;9.89;100.00
19086;BME280;9675;51.538;6.728;2024-01-30T02:15:49;102312.84;;;9.88;100.00
19086;BME280;9675;51.538;6.728;2024-01-30T02:18:17;102313.50;;;9.85;100.00
19086;BME280;9675;51.538;6.728;2024-01-30T02:20:45;102310.16;;;9.86;100.00
19086;BME280;9675;51.538;6.728;2024-01-30T02:23:16;102307.34;;;9.83;100.00
19086;BME280;9675;51.538;6.728;2024-01-30T02:25:43;102302.28;;;9.85;100.00
19086;BME280;9675;51.538;6.728;2024-01-30T02:28:11;102301.44;;;9.84;100.00
19086;BME280;9675;51.538;6.728;2024-01-30T02:30:38;102302.28;;;9.85;100.00
19086;BME280;9675;51.538;6.728;2024-01-30T02:33:06;102297.06;;;9.83;100.00
19086;BME280;9675;51.538;6.728;2024-01-30T02:35:33;102302.22;;;9.83;100.00
19086;BME280;9675;51.538;6.728;2024-01-30T02:38:01;102295.25;;;9.82;100.00
19086;BME280;9675;51.538;6.728;2024-01-30T02:40:29;102286.66;;;9.81;100.00
19086;BME280;9675;51.538;6.728;2024-01-30T02:42:57;102288.19;;;9.79;100.00
19086;BME280;9675;51.538;6.728;2024-01-30T02:45:24;102284.84;;;9.80;100.00
19086;BME280;9675;51.538;6.728;2024-01-30T02:47:52;102278.81;;;9.80;100.00
19086;BME280;9675;51.538;6.728;2024-01-30T02:50:20;102283.72;;;9.77;100.00
19086;BME280;9675;51.538;6.728;2024-01-30T02:52:47;102282.69;;;9.75;100.00
19086;BME280;9675;51.538;6.728;2024-01-30T02:55:14;102282.63;;;9.73;100.00
19086;BME280;9675;51.538;6.728;2024-01-30T02:57:44;102278.25;;;9.72;100.00
19086;BME280;9675;51.538;6.728;2024-01-30T03:00:13;102277.22;;;9.70;100.00
19086;BME280;9675;51.538;6.728;2024-01-30T03:02:40;102279.91;;;9.72;100.00
19086;BME280;9675;51.538;6.728;2024-01-30T03:05:08;102283.25;;;9.71;100.00
19086;BME280;9675;51.538;6.728;2024-01-30T03:07:35;102285.72;;;9.69;100.00
19086;BME280;9675;51.538;6.728;2024-01-30T03:10:04;102283.94;;;9.68;100.00
19086;BME280;9675;51.538;6.728;2024-01-30T03:12:31;102278.66;;;9.67;100.00
19086;BME280;9675;51.538;6.728;2024-01-30T03:15:00;102275.19;;;9.66;100.00
19086;BME280;9675;51.538;6.728;2024-01-30T03:17:27;102283.69;;;9.65;100.00
19086;BME280;9675;51.538;6.728;2024-01-30T03:19:54;102271.59;;;9.64;100.00
19086;BME280;9675;51.538;6.728;2024-01-30T03:22:21;102283.69;;;9.65;100.00
19086;BME280;9675;51.538;6.728;2024-01-30T03:24:48;102269.59;;;9.60;100.00
19086;BME280;9675;51.538;6.728;2024-01-30T03:27:15;102273.97;;;9.61;100.00
19086;BME280;9675;51.538;6.728;2024-01-30T03:29:42;102276.41;;;9.60;100.00
19086;BME280;9675;51.538;6.728;2024-01-30T03:32:10;102276.41;;;9.60;100.00
19086;BME280;9675;51.538;6.728;2024-01-30T03:34:37;102272.03;;;9.59;100.00
19086;BME280;9675;51.538;6.728;2024-01-30T03:37:04;102270.25;;;9.58;100.00
19086;BME280;9675;51.538;6.728;2024-01-30T03:39:31;102264.22;;;9.57;100.00
19086;BME280;9675;51.538;6.728;2024-01-30T03:41:58;102262.44;;;9.56;100.00
19086;BME280;9675;51.538;6.728;2024-01-30T03:44:25;102268.22;;;9.54;100.00
19086;BME280;9675;51.538;6.728;2024-01-30T03:46:53;102260.41;;;9.52;100.00
19086;BME280;9675;51.538;6.728;2024-01-30T03:49:21;102256.94;;;9.52;100.00
19086;BME280;9675;51.538;6.728;2024-01-30T03:51:48;102261.94;;;9.50;100.00
19086;BME280;9675;51.538;6.728;2024-01-30T03:54:15;102252.44;;;9.49;100.00
19086;BME280;9675;51.538;6.728;2024-01-30T03:56:43;102246.41;;;9.49;100.00
19086;BME280;9675;51.538;6.728;2024-01-30T03:59:10;102253.00;;;9.45;100.00
19086;BME280;9675;51.538;6.728;2024-01-30T04:01:37;102244.63;;;9.48;100.00
19086;BME280;9675;51.538;6.728;2024-01-30T04:04:04;102249.66;;;9.46;100.00
19086;BME280;9675;51.538;6.728;2024-01-30T04:06:32;102247.84;;;9.45;100.00
19086;BME280;9675;51.538;6.728;2024-01-30T04:08:59;102247.84;;;9.45;100.00
19086;BME280;9675;51.538;6.728;2024-01-30T04:11:26;102242.56;;;9.44;100.00
19086;BME280;9675;51.538;6.728;2024-01-30T04:13:53;102245.97;;;9.43;100.00
19086;BME280;9675;51.538;6.728;2024-01-30T04:16:21;102232.97;;;9.41;100.00
19086;BME280;9675;51.538;6.728;2024-01-30T04:18:48;102238.88;;;9.40;100.00
19086;BME280;9675;51.538;6.728;2024-01-30T04:21:14;102243.00;;;9.38;100.00
19086;BME280;9675;51.538;6.728;2024-01-30T04:23:43;102240.34;;;9.36;100.00
19086;BME280;9675;51.538;6.728;2024-01-30T04:26:10;102245.47;;;9.36;100.00
19086;BME280;9675;51.538;6.728;2024-01-30T04:28:37;102246.38;;;9.37;100.00
19086;BME280;9675;51.538;6.728;2024-01-30T04:31:04;102247.16;;;9.36;100.00
19086;BME280;9675;51.538;6.728;2024-01-30T04:33:31;102241.75;;;9.33;100.00
19086;BME280;9675;51.538;6.728;2024-01-30T04:35:58;102246.91;;;9.33;100.00
19086;BME280;9675;51.538;6.728;2024-01-30T04:38:25;102245.13;;;9.32;100.00
19086;BME280;9675;51.538;6.728;2024-01-30T04:40:53;102236.41;;;9.30;100.00
19086;BME280;9675;51.538;6.728;2024-01-30T04:43:20;102238.84;;;9.28;100.00
19086;BME280;9675;51.538;6.728;2024-01-30T04:45:49;102239.75;;;9.29;100.00
19086;BME280;9675;51.538;6.728;2024-01-30T04:48:16;102233.59;;;9.27;100.00
19086;BME280;9675;51.538;6.728;2024-01-30T04:50:43;102242.84;;;9.25;100.00
19086;BME280;9675;51.538;6.728;2024-01-30T04:53:10;102236.81;;;9.24;100.00
19086;BME280;9675;51.538;6.728;2024-01-30T04:55:37;102237.25;;;9.19;100.00
19086;BME280;9675;51.538;6.728;2024-01-30T04:58:05;102229.66;;;9.20;100.00
19086;BME280;9675;51.538;6.728;2024-01-30T05:00:32;102232.09;;;9.19;100.00
19086;BME280;9675;51.538;6.728;2024-01-30T05:02:59;102231.88;;;9.16;100.00
19086;BME280;9675;51.538;6.728;2024-01-30T05:05:26;102231.88;;;9.16;100.00
19086;BME280;9675;51.538;6.728;2024-01-30T05:07:53;102229.31;;;9.16;100.00
19086;BME280;9675;51.538;6.728;2024-01-30T05:10:20;102235.09;;;9.13;100.00
19086;BME280;9675;51.538;6.728;2024-01-30T05:12:47;102236.00;;;9.14;100.00
19086;BME280;9675;51.538;6.728;2024-01-30T05:15:16;102229.94;;;9.13;100.00
19086;BME280;9675;51.538;6.728;2024-01-30T05:17:43;102229.19;;;9.14;100.00
19086;BME280;9675;51.538;6.728;2024-01-30T05:20:12;102228.28;;;9.14;100.00
19086;BME280;9675;51.538;6.728;2024-01-30T05:22:39;102224.72;;;9.12;100.00
19086;BME280;9675;51.538;6.728;2024-01-30T05:25:10;102230.72;;;9.12;100.00
19086;BME280;9675;51.538;6.728;2024-01-30T05:27:38;102232.53;;;9.13;100.00
19086;BME280;9675;51.538;6.728;2024-01-30T05:30:06;102223.16;;;9.14;100.00
19086;BME280;9675;51.538;6.728;2024-01-30T05:32:35;102220.44;;;9.12;100.00
19086;BME280;9675;51.538;6.728;2024-01-30T05:35:03;102222.16;;;9.12;100.00
19086;BME280;9675;51.538;6.728;2024-01-30T05:37:31;102216.88;;;9.10;100.00
19086;BME280;9675;51.538;6.728;2024-01-30T05:39:58;102217.66;;;9.09;100.00
19086;BME280;9675;51.538;6.728;2024-01-30T05:42:26;102215.22;;;9.11;100.00
19086;BME280;9675;51.538;6.728;2024-01-30T05:44:54;102212.63;;;9.11;100.00
19086;BME280;9675;51.538;6.728;2024-01-30T05:47:21;102212.63;;;9.11;100.00
19086;BME280;9675;51.538;6.728;2024-01-30T05:49:49;102209.81;;;9.08;100.00
19086;BME280;9675;51.538;6.728;2024-01-30T05:52:16;102214.06;;;9.07;100.00
19086;BME280;9675;51.538;6.728;2024-01-30T05:54:44;102214.88;;;9.06;100.00
19086;BME280;9675;51.538;6.728;2024-01-30T05:57:11;102220.78;;;9.05;100.00
19086;BME280;9675;51.538;6.728;2024-01-30T05:59:38;102222.44;;;9.05;100.00
19086;BME280;9675;51.538;6.728;2024-01-30T06:02:05;102214.72;;;9.05;100.00
19086;BME280;9675;51.538;6.728;2024-01-30T06:04:32;102218.06;;;9.04;100.00
19086;BME280;9675;51.538;6.728;2024-01-30T06:07:01;102222.31;;;9.03;100.00
19086;BME280;9675;51.538;6.728;2024-01-30T06:09:28;102229.13;;;9.03;100.00
19086;BME280;9675;51.538;6.728;2024-01-30T06:11:55;102228.22;;;9.02;100.00
19086;BME280;9675;51.538;6.728;2024-01-30T06:14:22;102224.75;;;9.02;100.00
19086;BME280;9675;51.538;6.728;2024-01-30T06:16:49;102228.91;;;9.00;100.00
19086;BME280;9675;51.538;6.728;2024-01-30T06:19:16;102221.31;;;9.01;100.00
19086;BME280;9675;51.538;6.728;2024-01-30T06:21:44;102222.09;;;9.00;100.00
19086;BME280;9675;51.538;6.728;2024-01-30T06:24:12;102226.31;;;9.00;100.00
19086;BME280;9675;51.538;6.728;2024-01-30T06:26:39;102222.84;;;8.99;100.00
19086;BME280;9675;51.538;6.728;2024-01-30T06:29:07;102212.44;;;8.98;100.00
19086;BME280;9675;51.538;6.728;2024-01-30T06:31:40;102210.78;;;8.98;100.00
19086;BME280;9675;51.538;6.728;2024-01-30T06:34:08;102206.53;;;8.99;100.00
19086;BME280;9675;51.538;6.728;2024-01-30T06:36:35;102208.09;;;8.96;100.00
19086;BME280;9675;51.538;6.728;2024-01-30T06:39:02;102200.16;;;8.93;100.00
19086;BME280;9675;51.538;6.728;2024-01-30T06:41:31;102217.50;;;8.96;100.00
19086;BME280;9675;51.538;6.728;2024-01-30T06:43:58;102211.47;;;8.95;100.00
19086;BME280;9675;51.538;6.728;2024-01-30T06:46:25;102208.00;;;8.95;100.00
19086;BME280;9675;51.538;6.728;2024-01-30T06:48:53;102208.63;;;8.92;100.00
19086;BME280;9675;51.538;6.728;2024-01-30T06:51:20;102212.09;;;8.93;100.00
19086;BME280;9675;51.538;6.728;2024-01-30T06:53:47;102219.03;;;8.94;100.00
19086;BME280;9675;51.538;6.728;2024-01-30T06:56:14;102221.47;;;8.92;100.00
19086;BME280;9675;51.538;6.728;2024-01-30T06:58:43;102224.19;;;8.94;100.00
19086;BME280;9675;51.538;6.728;2024-01-30T07:01:10;102230.84;;;8.92;100.00
19086;BME280;9675;51.538;6.728;2024-01-30T07:03:37;102237.03;;;8.94;100.00
19086;BME280;9675;51.538;6.728;2024-01-30T07:06:05;102241.13;;;8.92;100.00
19086;BME280;9675;51.538;6.728;2024-01-30T07:08:32;102235.09;;;8.91;100.00
19086;BME280;9675;51.538;6.728;2024-01-30T07:10:59;102242.03;;;8.92;100.00
19086;BME280;9675;51.538;6.728;2024-01-30T07:13:27;102235.91;;;8.90;100.00
19086;BME280;9675;51.538;6.728;2024-01-30T07:15:55;102239.38;;;8.91;100.00
19086;BME280;9675;51.538;6.728;2024-01-30T07:18:22;102241.81;;;8.89;100.00
19086;BME280;9675;51.538;6.728;2024-01-30T07:20:50;102246.94;;;8.89;100.00
19086;BME280;9675;51.538;6.728;2024-01-30T07:23:17;102248.72;;;8.90;100.00
19086;BME280;9675;51.538;6.728;2024-01-30T07:25:44;102246.16;;;8.90;100.00
19086;BME280;9675;51.538;6.728;2024-01-30T07:28:12;102238.19;;;8.87;100.00
19086;BME280;9675;51.538;6.728;2024-01-30T07:30:39;102252.06;;;8.89;100.00
19086;BME280;9675;51.538;6.728;2024-01-30T07:33:08;102253.75;;;8.89;100.00
19086;BME280;9675;51.538;6.728;2024-01-30T07:35:36;102262.34;;;8.89;100.00
19086;BME280;9675;51.538;6.728;2024-01-30T07:38:03;102254.50;;;8.88;100.00
19086;BME280;9675;51.538;6.728;2024-01-30T07:40:30;102271.72;;;8.89;100.00
19086;BME280;9675;51.538;6.728;2024-01-30T07:42:59;102267.47;;;8.89;100.00
19086;BME280;9675;51.538;6.728;2024-01-30T07:45:26;102275.19;;;8.89;100.00
19086;BME280;9675;51.538;6.728;2024-01-30T07:47:58;102271.72;;;8.89;100.00
19086;BME280;9675;51.538;6.728;2024-01-30T07:50:27;102268.47;;;8.91;100.00
19086;BME280;9675;51.538;6.728;2024-01-30T07:52:56;102275.97;;;8.88;100.00
19086;BME280;9675;51.538;6.728;2024-01-30T07:55:23;102274.28;;;8.89;100.00
19086;BME280;9675;51.538;6.728;2024-01-30T07:57:53;102278.75;;;8.91;100.00
19086;BME280;9675;51.538;6.728;2024-01-30T08:00:21;102280.69;;;8.94;100.00
19086;BME280;9675;51.538;6.728;2024-01-30T08:02:48;102276.59;;;8.96;100.00
19086;BME280;9675;51.538;6.728;2024-01-30T08:05:15;102279.91;;;8.95;100.00
19086;BME280;9675;51.538;6.728;2024-01-30T08:07:44;102274.66;;;8.93;100.00
19086;BME280;9675;51.538;6.728;2024-01-30T08:10:12;102286.84;;;8.96;100.00
19086;BME280;9675;51.538;6.728;2024-01-30T08:12:39;102297.00;;;8.94;100.00
19086;BME280;9675;51.538;6.728;2024-01-30T08:15:07;102296.22;;;8.95;100.00
19086;BME280;9675;51.538;6.728;2024-01-30T08:17:34;102298.00;;;8.96;100.00
19086;BME280;9675;51.538;6.728;2024-01-30T08:20:01;102296.31;;;8.97;100.00
19086;BME280;9675;51.538;6.728;2024-01-30T08:22:30;102292.09;;;8.98;100.00
19086;BME280;9675;51.538;6.728;2024-01-30T08:24:58;102298.25;;;9.00;100.00
19086;BME280;9675;51.538;6.728;2024-01-30T08:27:25;102293.13;;;9.00;100.00
19086;BME280;9675;51.538;6.728;2024-01-30T08:29:52;102292.34;;;9.01;100.00
19086;BME280;9675;51.538;6.728;2024-01-30T08:32:19;102296.81;;;9.03;100.00
19086;BME280;9675;51.538;6.728;2024-01-30T08:34:46;102287.09;;;8.99;100.00
19086;BME280;9675;51.538;6.728;2024-01-30T08:37:13;102295.69;;;9.00;100.00
19086;BME280;9675;51.538;6.728;2024-01-30T08:39:42;102294.13;;;9.02;100.00
19086;BME280;9675;51.538;6.728;2024-01-30T08:42:10;102297.72;;;9.04;100.00
19086;BME280;9675;51.538;6.728;2024-01-30T08:44:37;102293.72;;;9.07;100.00
19086;BME280;9675;51.538;6.728;2024-01-30T08:47:05;102292.84;;;9.07;100.00
19086;BME280;9675;51.538;6.728;2024-01-30T08:49:32;102291.25;;;9.09;100.00
19086;BME280;9675;51.538;6.728;2024-01-30T08:51:59;102298.22;;;9.10;100.00
19086;BME280;9675;51.538;6.728;2024-01-30T08:54:26;102290.78;;;9.03;100.00
19086;BME280;9675;51.538;6.728;2024-01-30T08:56:53;102301.69;;;9.10;100.00
19086;BME280;9675;51.538;6.728;2024-01-30T08:59:23;102303.47;;;9.11;100.00
19086;BME280;9675;51.538;6.728;2024-01-30T09:01:50;102303.56;;;9.13;100.00
19086;BME280;9675;51.538;6.728;2024-01-30T09:04:19;102307.16;;;9.15;100.00
19086;BME280;9675;51.538;6.728;2024-01-30T09:06:46;102315.91;;;9.17;100.00
19086;BME280;9675;51.538;6.728;2024-01-30T09:09:13;102315.09;;;9.18;100.00
19086;BME280;9675;51.538;6.728;2024-01-30T09:11:41;102321.06;;;9.17;100.00
19086;BME280;9675;51.538;6.728;2024-01-30T09:14:08;102328.75;;;9.17;100.00
19086;BME280;9675;51.538;6.728;2024-01-30T09:16:36;102331.56;;;9.20;100.00
19086;BME280;9675;51.538;6.728;2024-01-30T09:19:03;102336.03;;;9.22;100.00
19086;BME280;9675;51.538;6.728;2024-01-30T09:21:31;102330.03;;;9.22;100.00
19086;BME280;9675;51.538;6.728;2024-01-30T09:24:02;102325.38;;;9.18;100.00
19086;BME280;9675;51.538;6.728;2024-01-30T09:26:30;102330.88;;;9.22;100.00
19086;BME280;9675;51.538;6.728;2024-01-30T09:28:57;102333.59;;;9.24;100.00
19086;BME280;9675;51.538;6.728;2024-01-30T09:31:24;102332.03;;;9.26;100.00
19086;BME280;9675;51.538;6.728;2024-01-30T09:33:53;102322.66;;;9.26;100.00
19086;BME280;9675;51.538;6.728;2024-01-30T09:36:20;102320.19;;;9.28;100.00
19086;BME280;9675;51.538;6.728;2024-01-30T09:38:47;102314.41;;;9.30;100.00
19086;BME280;9675;51.538;6.728;2024-01-30T09:41:15;102309.28;;;9.30;100.00
19086;BME280;9675;51.538;6.728;2024-01-30T09:43:48;102311.97;;;9.32;100.00
19086;BME280;9675;51.538;6.728;2024-01-30T09:46:17;102310.28;;;9.32;100.00
19086;BME280;9675;51.538;6.728;2024-01-30T09:48:46;102313.09;;;9.35;100.00
19086;BME280;9675;51.538;6.728;2024-01-30T09:51:16;102320.25;;;9.39;100.00
19086;BME280;9675;51.538;6.728;2024-01-30T09:53:44;102321.38;;;9.43;100.00
19086;BME280;9675;51.538;6.728;2024-01-30T09:56:13;102314.69;;;9.45;100.00
19086;BME280;9675;51.538;6.728;2024-01-30T09:58:40;102314.91;;;9.48;100.00
19086;BME280;9675;51.538;6.728;2024-01-30T10:01:07;102316.72;;;9.49;100.00
19086;BME280;9675;51.538;6.728;2024-01-30T10:03:34;102317.88;;;9.53;100.00
19086;BME280;9675;51.538;6.728;2024-01-30T10:06:02;102324.69;;;9.52;100.00
19086;BME280;9675;51.538;6.728;2024-01-30T10:08:30;102319.75;;;9.55;100.00
19086;BME280;9675;51.538;6.728;2024-01-30T10:10:57;102328.50;;;9.57;100.00
19086;BME280;9675;51.538;6.728;2024-01-30T10:13:25;102327.19;;;9.62;100.00
19086;BME280;9675;51.538;6.728;2024-01-30T10:15:53;102321.28;;;9.63;100.00
19086;BME280;9675;51.538;6.728;2024-01-30T10:18:22;102331.78;;;9.66;100.00
19086;BME280;9675;51.538;6.728;2024-01-30T10:20:49;102329.44;;;9.69;100.00
19086;BME280;9675;51.538;6.728;2024-01-30T10:23:17;102331.34;;;9.72;100.00
19086;BME280;9675;51.538;6.728;2024-01-30T10:25:46;102321.97;;;9.72;100.00
19086;BME280;9675;51.538;6.728;2024-01-30T10:28:13;102334.06;;;9.73;100.00
19086;BME280;9675;51.538;6.728;2024-01-30T10:30:40;102337.75;;;9.77;100.00
19086;BME280;9675;51.538;6.728;2024-01-30T10:33:08;102339.41;;;9.76;100.00
19086;BME280;9675;51.538;6.728;2024-01-30T10:35:35;102334.50;;;9.79;100.00
19086;BME280;9675;51.538;6.728;2024-01-30T10:38:03;102337.44;;;9.84;100.00
19086;BME280;9675;51.538;6.728;2024-01-30T10:40:35;102343.47;;;9.85;100.00
19086;BME280;9675;51.538;6.728;2024-01-30T10:43:10;102344.72;;;9.90;100.00
19086;BME280;9675;51.538;6.728;2024-01-30T10:45:40;102343.94;;;9.91;100.00
19086;BME280;9675;51.538;6.728;2024-01-30T10:48:13;102345.09;;;9.94;100.00
19086;BME280;9675;51.538;6.728;2024-01-30T10:50:42;102340.84;;;9.95;100.00
19086;BME280;9675;51.538;6.728;2024-01-30T10:53:10;102354.81;;;9.98;100.00
19086;BME280;9675;51.538;6.728;2024-01-30T10:55:38;102355.16;;;10.03;100.00
19086;BME280;9675;51.538;6.728;2024-01-30T10:58:08;102343.06;;;10.02;100.00
19086;BME280;9675;51.538;6.728;2024-01-30T11:00:37;102338.41;;;10.08;100.00
19086;BME280;9675;51.538;6.728;2024-01-30T11:03:05;102335.94;;;10.09;100.00
19086;BME280;9675;51.538;6.728;2024-01-30T11:05:33;102323.28;;;10.12;100.00
19086;BME280;9675;51.538;6.728;2024-01-30T11:08:11;102341.56;;;10.15;100.00
19086;BME280;9675;51.538;6.728;2024-01-30T11:10:46;102342.59;;;10.17;100.00
19086;BME280;9675;51.538;6.728;2024-01-30T11:13:19;102354.81;;;10.20;100.00
19086;BME280;9675;51.538;6.728;2024-01-30T11:15:48;102347.84;;;10.19;100.00
19086;BME280;9675;51.538;6.728;2024-01-30T11:18:23;102351.41;;;10.21;100.00
19086;BME280;9675;51.538;6.728;2024-01-30T11:20:51;102348.06;;;10.22;100.00
19086;BME280;9675;51.538;6.728;2024-01-30T11:23:18;102350.09;;;10.26;100.00
19086;BME280;9675;51.538;6.728;2024-01-30T11:25:45;102357.94;;;10.28;100.00
19086;BME280;9675;51.538;6.728;2024-01-30T11:28:17;102357.28;;;10.30;100.00
19086;BME280;9675;51.538;6.728;2024-01-30T11:30:44;102358.28;;;10.32;100.00
19086;BME280;9675;51.538;6.728;2024-01-30T11:33:14;102357.50;;;10.33;100.00
19086;BME280;9675;51.538;6.728;2024-01-30T11:35:43;102359.50;;;10.37;100.00
19086;BME280;9675;51.538;6.728;2024-01-30T11:38:13;102348.56;;;10.40;100.00
19086;BME280;9675;51.538;6.728;2024-01-30T11:40:41;102344.06;;;10.37;100.00
19086;BME280;9675;51.538;6.728;2024-01-30T11:43:09;102348.44;;;10.38;100.00
19086;BME280;9675;51.538;6.728;2024-01-30T11:45:38;102352.13;;;10.42;100.00
19086;BME280;9675;51.538;6.728;2024-01-30T11:48:07;102342.72;;;10.42;100.00
19086;BME280;9675;51.538;6.728;2024-01-30T11:50:39;102343.75;;;10.44;100.00
19086;BME280;9675;51.538;6.728;2024-01-30T11:53:06;102339.63;;;10.46;100.00
19086;BME280;9675;51.538;6.728;2024-01-30T11:55:34;102338.81;;;10.47;100.00
19086;BME280;9675;51.538;6.728;2024-01-30T11:58:02;102339.84;;;10.49;100.00
19086;BME280;9675;51.538;6.728;2024-01-30T12:00:30;102339.16;;;10.52;100.00
19086;BME280;9675;51.538;6.728;2024-01-30T12:03:00;102335.59;;;10.50;100.00
19086;BME280;9675;51.538;6.728;2024-01-30T12:05:28;102331.31;;;10.50;100.00
19086;BME280;9675;51.538;6.728;2024-01-30T12:07:55;102328.97;;;10.53;100.00
19086;BME280;9675;51.538;6.728;2024-01-30T12:10:24;102333.47;;;10.56;100.00
19086;BME280;9675;51.538;6.728;2024-01-30T12:12:53;102331.78;;;10.56;100.00
19086;BME280;9675;51.538;6.728;2024-01-30T12:15:22;102335.34;;;10.58;100.00
19086;BME280;9675;51.538;6.728;2024-01-30T12:17:49;102330.44;;;10.61;100.00
19086;BME280;9675;51.538;6.728;2024-01-30T12:20:19;102334.00;;;10.63;100.00
19086;BME280;9675;51.538;6.728;2024-01-30T12:22:48;102342.50;;;10.62;100.00
19086;BME280;9675;51.538;6.728;2024-01-30T12:25:17;102340.94;;;10.64;100.00
19086;BME280;9675;51.538;6.728;2024-01-30T12:27:46;102345.31;;;10.65;100.00
19086;BME280;9675;51.538;6.728;2024-01-30T12:30:17;102337.34;;;10.62;100.00
19086;BME280;9675;51.538;6.728;2024-01-30T12:32:46;102341.97;;;10.67;100.00
19086;BME280;9675;51.538;6.728;2024-01-30T12:35:15;102340.28;;;10.67;100.00
19086;BME280;9675;51.538;6.728;2024-01-30T12:37:45;102337.81;;;10.69;100.00
19086;BME280;9675;51.538;6.728;2024-01-30T12:40:15;102336.91;;;10.68;100.00
19086;BME280;9675;51.538;6.728;2024-01-30T12:42:42;102331.09;;;10.71;100.00
19086;BME280;9675;51.538;6.728;2024-01-30T12:45:13;102337.16;;;10.71;100.00
19086;BME280;9675;51.538;6.728;2024-01-30T12:47:41;102331.09;;;10.71;100.00
19086;BME280;9675;51.538;6.728;2024-01-30T12:50:08;102328.53;;;10.71;100.00
19086;BME280;9675;51.538;6.728;2024-01-30T12:52:36;102329.50;;;10.73;100.00
19086;BME280;9675;51.538;6.728;2024-01-30T12:55:05;102339.16;;;10.75;100.00
19086;BME280;9675;51.538;6.728;2024-01-30T12:57:32;102345.09;;;10.74;100.00
19086;BME280;9675;51.538;6.728;2024-01-30T12:59:59;102342.50;;;10.74;100.00